sim
Sign-in with your pilot id or email,
or register
Callsign
Passwort

Schedule Details

Flight Number: DLH2397 (2)
Departure: Basel Mulhouse-Freiburg EuroAirport (LFSB) at 12:10
Arrival: Munich Airport (EDDM) at 13:10
Route: Lufthansa Passenger Schedule. Enter filed route here before submitting Pirep.

Weather Information
Getting current METAR information for LFSB 190600Z VRB02KT CAVOK 13/12 Q1018 NOSIG
Getting current METAR information for EDDM 190620Z 05005KT CAVOK 08/05 Q1020 NOSIG

Schedule Frequency

Route Map